Terminal Aerodrome Forecast
Issued by NWS

Home | Current Version | Previous Version | Text Only | Print | Product List | Glossary On
Versions: 1 2 3 4 5 6 7 8 9 10 11 12 13
000
FTUS45 KABQ 281700
TAFSAF
TAF
KSAF 281735Z 2818/2918 31010KT P6SM FEW080
     FM290200 01006KT P6SM FEW070 BKN200
     FM291200 12012KT P6SM FEW050 BKN200=

USA.gov is the U.S. government's official web portal to all federal, state and local government web resources and services.